createdAt,value
2017-04-26T00:00:13.230Z,20.20
2017-04-26T00:01:12.567Z,20.69
2017-04-26T00:02:13.247Z,20.76
2017-04-26T00:03:12.462Z,20.79
2017-04-26T00:04:11.259Z,20.79
2017-04-26T00:05:12.522Z,20.81
2017-04-26T00:06:13.298Z,20.28
2017-04-26T00:07:13.935Z,20.27
2017-04-26T00:08:12.661Z,20.72
2017-04-26T00:09:09.835Z,20.77
2017-04-26T00:10:13.048Z,20.43
2017-04-26T00:11:15.038Z,20.27
2017-04-26T00:12:13.710Z,20.24
2017-04-26T00:13:12.530Z,20.28
2017-04-26T00:14:14.253Z,20.20
2017-04-26T00:15:13.397Z,20.19
2017-04-26T00:16:14.775Z,20.19
2017-04-26T00:17:10.478Z,20.18
2017-04-26T00:18:14.043Z,20.18
2017-04-26T00:19:10.077Z,20.18
2017-04-26T00:20:13.120Z,20.35
2017-04-26T00:21:13.732Z,20.26
2017-04-26T00:22:12.603Z,20.20
2017-04-26T00:23:13.210Z,20.19
2017-04-26T00:24:13.962Z,20.18
2017-04-26T00:25:12.744Z,20.18
2017-04-26T00:26:12.496Z,20.17
2017-04-26T00:27:14.465Z,20.19
2017-04-26T00:28:13.377Z,20.17
2017-04-26T00:29:14.114Z,20.17
2017-04-26T00:30:13.194Z,20.17
2017-04-26T00:31:13.363Z,20.17
2017-04-26T00:32:13.843Z,20.17
2017-04-26T00:33:12.935Z,20.17
2017-04-26T00:34:13.762Z,20.17
2017-04-26T00:35:12.638Z,20.18
2017-04-26T00:36:12.618Z,20.17
2017-04-26T00:37:13.416Z,20.17
2017-04-26T00:38:13.703Z,20.17
2017-04-26T00:39:12.246Z,20.17
2017-04-26T00:40:10.136Z,20.16
2017-04-26T00:41:13.591Z,20.36
2017-04-26T00:42:13.347Z,20.28
2017-04-26T00:43:14.539Z,20.21
2017-04-26T00:44:11.716Z,20.20
2017-04-26T00:45:10.969Z,20.18
2017-04-26T00:46:13.171Z,20.71
2017-04-26T00:47:13.919Z,20.76
2017-04-26T00:48:13.925Z,20.79
2017-04-26T00:49:12.856Z,20.81
2017-04-26T00:50:13.556Z,20.81
2017-04-26T00:51:13.235Z,20.81
2017-04-26T00:52:11.182Z,20.83
2017-04-26T00:53:14.033Z,20.29
2017-04-26T00:54:10.449Z,20.23
2017-04-26T00:55:13.590Z,20.22
2017-04-26T00:56:14.329Z,20.20
2017-04-26T00:57:14.856Z,20.20
2017-04-26T00:58:13.614Z,20.26
2017-04-26T00:59:13.965Z,20.20
2017-04-26T01:00:12.809Z,20.19
2017-04-26T01:01:13.264Z,20.25
2017-04-26T01:02:14.052Z,20.19
2017-04-26T01:03:13.220Z,20.18
2017-04-26T01:04:14.038Z,20.19
2017-04-26T01:05:14.208Z,20.18
2017-04-26T01:06:14.993Z,20.18
2017-04-26T01:07:13.267Z,20.19
2017-04-26T01:08:13.402Z,20.18
2017-04-26T01:09:15.831Z,20.18
2017-04-26T01:10:10.619Z,20.18
2017-04-26T01:11:12.861Z,20.19
2017-04-26T01:12:12.558Z,20.18
2017-04-26T01:13:13.362Z,20.19
2017-04-26T01:14:11.381Z,20.18
2017-04-26T01:15:11.280Z,20.69
2017-04-26T01:16:10.695Z,20.75
2017-04-26T01:17:12.591Z,20.26
2017-04-26T01:18:11.747Z,20.22
2017-04-26T01:19:12.576Z,20.25
2017-04-26T01:20:13.255Z,20.20
2017-04-26T01:21:13.233Z,20.19
2017-04-26T01:22:12.321Z,20.19
2017-04-26T01:23:13.602Z,20.18
2017-04-26T01:24:12.549Z,20.19
2017-04-26T01:25:12.386Z,20.18
2017-04-26T01:26:14.154Z,20.23
2017-04-26T01:27:13.076Z,20.19
2017-04-26T01:28:11.023Z,20.17
2017-04-26T01:29:12.259Z,20.35
2017-04-26T01:30:14.893Z,20.23
2017-04-26T01:31:12.751Z,20.20
2017-04-26T01:32:12.441Z,20.24
2017-04-26T01:33:12.429Z,20.19
2017-04-26T01:34:13.193Z,20.18
2017-04-26T01:35:12.492Z,20.20
2017-04-26T01:36:14.948Z,20.19
2017-04-26T01:37:12.693Z,20.19
2017-04-26T01:38:12.554Z,20.18
2017-04-26T01:39:11.761Z,20.18
2017-04-26T01:40:11.930Z,20.19
2017-04-26T01:41:10.018Z,20.18
2017-04-26T01:42:12.481Z,20.18
2017-04-26T01:43:13.395Z,20.18
2017-04-26T01:44:13.458Z,20.24
2017-04-26T01:45:13.363Z,20.24
2017-04-26T01:46:13.378Z,20.18
2017-04-26T01:47:13.034Z,20.22
2017-04-26T01:48:13.767Z,20.70
2017-04-26T01:49:12.602Z,20.75
2017-04-26T01:50:10.077Z,20.79
2017-04-26T01:51:12.610Z,20.81
2017-04-26T01:52:10.096Z,20.82
2017-04-26T01:53:13.737Z,20.82
2017-04-26T01:54:11.707Z,20.83
2017-04-26T01:55:11.830Z,20.84
2017-04-26T01:56:12.830Z,20.84
2017-04-26T01:57:12.052Z,20.83
2017-04-26T01:58:12.620Z,20.82
2017-04-26T01:59:12.589Z,20.83
2017-04-26T02:00:12.719Z,20.51
2017-04-26T02:01:11.848Z,20.30
2017-04-26T02:02:09.306Z,20.25
2017-04-26T02:03:12.594Z,20.24
2017-04-26T02:04:12.990Z,20.27
2017-04-26T02:05:12.793Z,20.21
2017-04-26T02:06:12.783Z,20.20
2017-04-26T02:07:11.920Z,20.20
2017-04-26T02:08:12.019Z,20.20
2017-04-26T02:09:11.083Z,20.19
2017-04-26T02:10:13.308Z,20.21
2017-04-26T02:11:12.504Z,20.19
2017-04-26T02:12:12.816Z,20.20
2017-04-26T02:13:12.359Z,20.22
2017-04-26T02:14:12.422Z,20.20
2017-04-26T02:15:14.041Z,20.19
2017-04-26T02:16:13.736Z,20.27
2017-04-26T02:17:12.005Z,20.20
2017-04-26T02:18:11.013Z,20.19
2017-04-26T02:19:14.318Z,20.19
2017-04-26T02:20:14.129Z,20.19
2017-04-26T02:21:12.331Z,20.19
2017-04-26T02:22:14.026Z,20.19
2017-04-26T02:23:14.001Z,20.18
2017-04-26T02:24:12.026Z,20.19
2017-04-26T02:25:12.691Z,20.19
2017-04-26T02:26:12.639Z,20.19
2017-04-26T02:27:11.840Z,20.18
2017-04-26T02:28:12.162Z,20.19
2017-04-26T02:29:13.116Z,20.18
2017-04-26T02:30:12.655Z,20.18
2017-04-26T02:31:12.322Z,20.19
2017-04-26T02:32:11.507Z,20.70
2017-04-26T02:33:12.606Z,20.23
2017-04-26T02:34:10.553Z,20.20
2017-04-26T02:35:13.217Z,20.72
2017-04-26T02:36:12.900Z,20.76
2017-04-26T02:37:11.941Z,20.80
2017-04-26T02:38:12.634Z,20.81
2017-04-26T02:39:12.599Z,20.83
2017-04-26T02:40:12.318Z,20.47
2017-04-26T02:41:12.348Z,20.29
2017-04-26T02:42:13.115Z,20.30
2017-04-26T02:43:13.172Z,20.23
2017-04-26T02:44:12.622Z,20.21
2017-04-26T02:45:13.567Z,20.20
2017-04-26T02:46:12.537Z,20.20
2017-04-26T02:47:13.158Z,20.19
2017-04-26T02:48:09.468Z,20.18
2017-04-26T02:49:12.786Z,20.19
2017-04-26T02:50:11.842Z,20.18
2017-04-26T02:51:13.056Z,20.19
2017-04-26T02:52:13.242Z,20.19
2017-04-26T02:53:13.220Z,20.19
2017-04-26T02:54:13.394Z,20.18
2017-04-26T02:55:13.768Z,20.18
2017-04-26T02:56:13.195Z,20.18
2017-04-26T02:57:10.525Z,20.18
2017-04-26T02:58:11.929Z,20.18
2017-04-26T02:59:12.367Z,20.18
2017-04-26T03:00:12.218Z,20.22
2017-04-26T03:01:12.869Z,20.18
2017-04-26T03:02:12.696Z,20.19
2017-04-26T03:03:11.815Z,20.18
2017-04-26T03:04:12.667Z,20.17
2017-04-26T03:05:11.725Z,20.17
2017-04-26T03:06:12.697Z,20.17
2017-04-26T03:07:12.256Z,20.17
2017-04-26T03:08:12.807Z,20.21
2017-04-26T03:09:12.626Z,20.18
2017-04-26T03:10:12.535Z,20.18
2017-04-26T03:11:13.405Z,20.17
2017-04-26T03:12:12.802Z,20.17
2017-04-26T03:13:11.757Z,20.17
2017-04-26T03:14:11.784Z,20.17
2017-04-26T03:15:12.863Z,20.18
2017-04-26T03:16:13.223Z,20.17
2017-04-26T03:17:13.625Z,20.18
2017-04-26T03:18:11.595Z,20.18
2017-04-26T03:19:11.633Z,20.18
2017-04-26T03:20:12.450Z,20.19
2017-04-26T03:21:12.834Z,20.23
2017-04-26T03:22:11.895Z,20.18
2017-04-26T03:23:12.606Z,20.25
2017-04-26T03:24:12.689Z,20.18
2017-04-26T03:25:12.561Z,20.18
2017-04-26T03:26:12.768Z,20.18
2017-04-26T03:27:13.696Z,20.18
2017-04-26T03:28:12.236Z,20.21
2017-04-26T03:29:12.735Z,20.22
2017-04-26T03:30:11.578Z,20.18
2017-04-26T03:31:13.024Z,20.18
2017-04-26T03:32:12.886Z,20.18
2017-04-26T03:33:09.986Z,20.17
2017-04-26T03:34:12.445Z,20.70
2017-04-26T03:35:12.597Z,20.74
2017-04-26T03:36:12.501Z,20.42
2017-04-26T03:37:13.781Z,20.26
2017-04-26T03:38:12.547Z,20.23
2017-04-26T03:39:12.757Z,20.20
2017-04-26T03:40:13.147Z,20.20
2017-04-26T03:41:10.839Z,20.19
2017-04-26T03:42:13.070Z,20.19
2017-04-26T03:43:12.712Z,20.18
2017-04-26T03:44:10.688Z,20.16
2017-04-26T03:45:11.820Z,20.71
2017-04-26T03:46:13.086Z,20.76
2017-04-26T03:47:12.516Z,20.80
2017-04-26T03:48:12.249Z,20.80
2017-04-26T03:49:12.932Z,20.80
2017-04-26T03:50:13.160Z,20.28
2017-04-26T03:51:12.822Z,20.22
2017-04-26T03:52:11.811Z,20.20
2017-04-26T03:53:13.817Z,20.19
2017-04-26T03:54:12.048Z,20.19
2017-04-26T03:55:12.100Z,20.18
2017-04-26T03:56:12.606Z,20.21
2017-04-26T03:57:11.738Z,20.18
2017-04-26T03:58:11.877Z,20.17
2017-04-26T03:59:13.415Z,20.17
2017-04-26T04:00:12.593Z,20.17
2017-04-26T04:01:13.763Z,20.17
2017-04-26T04:02:11.687Z,20.18
2017-04-26T04:03:12.268Z,20.21
2017-04-26T04:04:12.590Z,20.17
2017-04-26T04:05:12.368Z,20.17
2017-04-26T04:06:12.944Z,20.17
2017-04-26T04:07:12.206Z,20.17
2017-04-26T04:08:12.324Z,20.17
2017-04-26T04:09:13.973Z,20.16
2017-04-26T04:10:11.986Z,20.16
2017-04-26T04:11:12.617Z,20.20
2017-04-26T04:12:12.413Z,20.17
2017-04-26T04:13:12.545Z,20.16
2017-04-26T04:14:13.363Z,20.17
2017-04-26T04:15:12.603Z,20.17
2017-04-26T04:16:13.406Z,20.17
2017-04-26T04:17:10.913Z,20.16
2017-04-26T04:18:12.735Z,20.17
2017-04-26T04:19:10.499Z,20.17
2017-04-26T04:20:14.078Z,20.17
2017-04-26T04:21:10.183Z,20.16
2017-04-26T04:22:13.974Z,20.16
2017-04-26T04:23:12.449Z,20.19
2017-04-26T04:24:12.418Z,20.17
2017-04-26T04:25:16.616Z,20.17
2017-04-26T04:26:11.714Z,20.32
2017-04-26T04:27:12.757Z,20.23
2017-04-26T04:28:12.677Z,20.21
2017-04-26T04:29:13.208Z,20.18
2017-04-26T04:30:12.905Z,20.17
2017-04-26T04:31:12.745Z,20.18
2017-04-26T04:32:10.686Z,20.17
2017-04-26T04:33:12.418Z,20.17
2017-04-26T04:34:13.514Z,20.18
2017-04-26T04:35:12.532Z,20.17
2017-04-26T04:36:13.236Z,20.17
2017-04-26T04:37:12.808Z,20.20
2017-04-26T04:38:11.840Z,20.17
2017-04-26T04:39:13.194Z,20.17
2017-04-26T04:40:12.430Z,20.17
2017-04-26T04:41:14.101Z,20.16
2017-04-26T04:42:12.416Z,20.17
2017-04-26T04:43:13.791Z,20.17
2017-04-26T04:44:12.480Z,20.17
2017-04-26T04:45:12.611Z,20.17
2017-04-26T04:46:12.411Z,20.16
2017-04-26T04:47:12.628Z,20.17
2017-04-26T04:48:11.640Z,20.16
2017-04-26T04:49:11.702Z,20.16
2017-04-26T04:50:12.311Z,20.16
2017-04-26T04:51:12.832Z,20.19
2017-04-26T04:52:11.975Z,20.17
2017-04-26T04:53:12.767Z,20.17
2017-04-26T04:54:13.889Z,20.17
2017-04-26T04:55:13.461Z,20.16
2017-04-26T04:56:12.666Z,20.17
2017-04-26T04:57:11.938Z,20.17
2017-04-26T04:58:12.245Z,20.17
2017-04-26T04:59:15.186Z,20.17
2017-04-26T05:00:13.321Z,20.17
2017-04-26T05:01:11.346Z,20.16
2017-04-26T05:02:13.306Z,20.37
2017-04-26T05:03:13.203Z,20.21
2017-04-26T05:04:12.337Z,20.20
2017-04-26T05:05:13.079Z,20.18
2017-04-26T05:06:10.941Z,20.17
2017-04-26T05:07:12.242Z,20.17
2017-04-26T05:08:14.050Z,20.17
2017-04-26T05:09:12.142Z,20.16
2017-04-26T05:10:13.220Z,20.17
2017-04-26T05:11:12.427Z,20.68
2017-04-26T05:12:13.166Z,20.75
2017-04-26T05:13:12.722Z,20.29
2017-04-26T05:14:12.737Z,20.20
2017-04-26T05:15:12.266Z,20.21
2017-04-26T05:16:12.922Z,20.18
2017-04-26T05:17:12.048Z,20.17
2017-04-26T05:18:12.252Z,20.17
2017-04-26T05:19:12.952Z,20.20
2017-04-26T05:20:12.226Z,20.17
2017-04-26T05:21:12.831Z,20.24
2017-04-26T05:22:12.729Z,20.19
2017-04-26T05:23:12.823Z,20.17
2017-04-26T05:24:09.986Z,20.16
2017-04-26T05:25:12.581Z,20.68
2017-04-26T05:26:12.459Z,20.74
2017-04-26T05:27:14.420Z,20.77
2017-04-26T05:28:12.564Z,20.77
2017-04-26T05:29:11.748Z,20.45
2017-04-26T05:30:13.710Z,20.26
2017-04-26T05:31:12.619Z,20.21
2017-04-26T05:32:12.235Z,20.19
2017-04-26T05:33:12.414Z,20.18
2017-04-26T05:34:12.610Z,20.17
2017-04-26T05:35:12.375Z,20.17
2017-04-26T05:36:10.949Z,20.17
2017-04-26T05:37:13.166Z,20.68
2017-04-26T05:38:12.254Z,20.74
2017-04-26T05:39:11.940Z,20.41
2017-04-26T05:40:12.705Z,20.24
2017-04-26T05:41:12.247Z,20.23
2017-04-26T05:42:14.159Z,20.24
2017-04-26T05:43:10.961Z,20.17
2017-04-26T05:44:12.458Z,20.17
2017-04-26T05:45:13.249Z,20.18
2017-04-26T05:46:14.030Z,20.17
2017-04-26T05:47:12.433Z,20.19
2017-04-26T05:48:12.643Z,20.16
2017-04-26T05:49:13.079Z,20.16
2017-04-26T05:50:12.853Z,20.16
2017-04-26T05:51:13.228Z,20.17
2017-04-26T05:52:15.079Z,20.15
2017-04-26T05:53:13.438Z,20.16
2017-04-26T05:54:11.737Z,20.16
2017-04-26T05:55:11.875Z,20.15
2017-04-26T05:56:10.413Z,20.16
2017-04-26T05:57:12.176Z,20.15
2017-04-26T05:58:13.001Z,20.15
2017-04-26T05:59:12.018Z,20.15
2017-04-26T06:00:10.087Z,20.15
2017-04-26T06:01:13.206Z,20.16
2017-04-26T06:02:13.103Z,20.15
2017-04-26T06:03:13.915Z,20.15
2017-04-26T06:04:13.063Z,20.16
2017-04-26T06:05:13.123Z,20.15
2017-04-26T06:06:13.840Z,20.15
2017-04-26T06:07:12.034Z,20.16
2017-04-26T06:08:12.835Z,20.15
2017-04-26T06:09:10.785Z,20.14
2017-04-26T06:10:12.104Z,20.68
2017-04-26T06:11:10.684Z,20.72
2017-04-26T06:12:12.944Z,20.75
2017-04-26T06:13:12.820Z,20.76
2017-04-26T06:14:12.053Z,20.44
2017-04-26T06:15:12.692Z,20.25
2017-04-26T06:16:12.838Z,20.21
2017-04-26T06:17:12.007Z,20.18
2017-04-26T06:18:10.871Z,20.17
2017-04-26T06:19:12.766Z,20.18
2017-04-26T06:20:11.777Z,20.67
2017-04-26T06:21:12.630Z,20.72
2017-04-26T06:22:11.721Z,20.75
2017-04-26T06:23:12.619Z,20.40
2017-04-26T06:24:12.402Z,20.25
2017-04-26T06:25:13.165Z,20.18
2017-04-26T06:26:13.559Z,20.16
2017-04-26T06:27:12.703Z,20.15
2017-04-26T06:28:13.644Z,20.14
2017-04-26T06:29:12.666Z,20.14
2017-04-26T06:30:12.285Z,20.14
2017-04-26T06:31:13.137Z,20.13
2017-04-26T06:32:12.836Z,20.17
2017-04-26T06:33:11.930Z,20.13
2017-04-26T06:34:14.811Z,20.13
2017-04-26T06:35:12.433Z,20.15
2017-04-26T06:36:15.230Z,20.12
2017-04-26T06:37:12.412Z,20.12
2017-04-26T06:38:13.341Z,20.13
2017-04-26T06:39:14.024Z,20.12
2017-04-26T06:40:12.880Z,20.15
2017-04-26T06:41:12.422Z,20.10
2017-04-26T06:42:13.248Z,20.14
2017-04-26T06:43:12.152Z,20.10
2017-04-26T06:44:12.436Z,20.10
2017-04-26T06:45:13.141Z,20.10
2017-04-26T06:46:14.095Z,20.10
2017-04-26T06:47:13.273Z,20.10
2017-04-26T06:48:12.490Z,20.09
2017-04-26T06:49:12.648Z,20.10
2017-04-26T06:50:12.644Z,20.10
2017-04-26T06:51:10.289Z,20.09
2017-04-26T06:56:13.265Z,20.41
2017-04-26T06:57:13.679Z,20.22
2017-04-26T06:58:13.471Z,20.17
2017-04-26T06:59:13.234Z,20.14
2017-04-26T07:00:12.805Z,20.11
2017-04-26T07:01:13.423Z,20.11
2017-04-26T07:02:15.920Z,20.10
2017-04-26T07:03:14.692Z,20.10
2017-04-26T07:04:12.136Z,20.17
2017-04-26T07:05:13.751Z,20.08
2017-04-26T07:06:12.263Z,20.08
2017-04-26T07:07:12.599Z,20.09
2017-04-26T07:08:13.295Z,20.08
2017-04-26T07:09:13.403Z,20.06
2017-04-26T07:10:09.825Z,20.04
2017-04-26T07:11:13.900Z,20.04
2017-04-26T07:12:12.913Z,20.02
2017-04-26T07:13:14.061Z,20.02
2017-04-26T07:14:12.126Z,20.02
2017-04-26T07:15:12.427Z,20.02
2017-04-26T07:16:14.593Z,20.02
2017-04-26T07:17:11.840Z,20.03
2017-04-26T07:18:12.175Z,20.03
2017-04-26T07:19:14.067Z,20.03
2017-04-26T07:20:13.819Z,20.04
2017-04-26T07:21:11.922Z,20.05
2017-04-26T07:22:11.994Z,20.06
2017-04-26T07:23:12.845Z,20.05
2017-04-26T07:24:12.668Z,20.04
2017-04-26T07:25:12.504Z,20.04
2017-04-26T07:26:12.145Z,20.04
2017-04-26T07:27:12.308Z,20.04
2017-04-26T07:28:12.432Z,20.05
2017-04-26T07:29:14.091Z,20.04
2017-04-26T07:30:10.048Z,20.03
2017-04-26T07:31:12.092Z,20.05
2017-04-26T07:32:12.673Z,20.09
2017-04-26T07:33:11.730Z,20.04
2017-04-26T07:34:12.415Z,20.10
2017-04-26T07:35:14.450Z,20.05
2017-04-26T07:36:13.128Z,20.05
2017-04-26T07:37:12.821Z,20.11
2017-04-26T07:38:11.874Z,20.05
2017-04-26T07:39:12.802Z,20.05
2017-04-26T07:40:12.532Z,20.05
2017-04-26T07:41:11.100Z,20.06
2017-04-26T07:42:12.622Z,20.05
2017-04-26T07:43:12.827Z,20.05
2017-04-26T07:44:11.880Z,20.05
2017-04-26T07:45:12.251Z,20.06
2017-04-26T07:46:12.969Z,20.05
2017-04-26T07:47:12.441Z,20.08
2017-04-26T07:48:12.432Z,20.06
2017-04-26T07:49:12.833Z,20.12
2017-04-26T07:50:11.861Z,20.06
2017-04-26T07:51:12.141Z,20.06
2017-04-26T07:52:12.243Z,20.06
2017-04-26T07:53:12.306Z,20.05
2017-04-26T07:54:13.241Z,20.05
2017-04-26T07:55:13.140Z,20.06
2017-04-26T07:56:13.000Z,20.05
2017-04-26T07:57:12.028Z,20.06
2017-04-26T07:58:12.100Z,20.05
2017-04-26T07:59:12.757Z,20.05
2017-04-26T08:00:13.451Z,20.06
2017-04-26T08:01:12.681Z,20.06
2017-04-26T08:02:11.826Z,20.06
2017-04-26T08:03:11.952Z,20.07
2017-04-26T08:04:12.907Z,20.08
2017-04-26T08:05:12.655Z,20.06
2017-04-26T08:06:13.347Z,20.07
2017-04-26T08:07:13.232Z,20.05
2017-04-26T08:08:14.571Z,20.06
2017-04-26T08:09:12.638Z,20.06
2017-04-26T08:10:12.650Z,20.06
2017-04-26T08:11:10.753Z,20.06
2017-04-26T08:12:12.272Z,20.59
2017-04-26T08:13:12.476Z,20.62
2017-04-26T08:14:13.472Z,20.66
2017-04-26T08:15:11.257Z,20.67
2017-04-26T08:16:11.755Z,20.67
2017-04-26T08:17:12.259Z,20.17
2017-04-26T08:18:13.251Z,20.12
2017-04-26T08:19:12.749Z,20.14
2017-04-26T08:20:11.951Z,20.09
2017-04-26T08:21:12.234Z,20.08
2017-04-26T08:22:12.458Z,20.07
2017-04-26T08:23:12.670Z,20.07
2017-04-26T08:24:12.880Z,20.07
2017-04-26T08:25:13.679Z,20.07
2017-04-26T08:26:13.450Z,20.07
2017-04-26T08:27:13.234Z,20.06
2017-04-26T08:28:12.971Z,20.07
2017-04-26T08:29:13.569Z,20.07
2017-04-26T08:30:11.542Z,20.07
2017-04-26T08:31:13.333Z,20.06
2017-04-26T08:32:12.581Z,20.07
2017-04-26T08:33:12.426Z,20.07
2017-04-26T08:34:12.597Z,20.59
2017-04-26T08:35:11.656Z,20.63
2017-04-26T08:36:12.588Z,20.67
2017-04-26T08:37:09.664Z,20.16
2017-04-26T08:38:12.835Z,20.63
2017-04-26T08:39:13.608Z,20.67
2017-04-26T08:40:12.296Z,20.68
2017-04-26T08:41:13.084Z,20.69
2017-04-26T08:42:14.616Z,20.34
2017-04-26T08:43:12.426Z,20.21
2017-04-26T08:44:13.150Z,20.12
2017-04-26T08:45:10.936Z,20.10
2017-04-26T08:46:12.330Z,20.09
2017-04-26T08:47:12.860Z,20.11
2017-04-26T08:48:12.520Z,20.16
2017-04-26T08:49:11.517Z,20.08
2017-04-26T08:50:12.417Z,20.07
2017-04-26T08:51:12.521Z,20.07
2017-04-26T08:52:10.626Z,20.07
2017-04-26T08:53:12.236Z,20.11
2017-04-26T08:54:13.250Z,20.08
2017-04-26T08:55:12.519Z,20.07
2017-04-26T08:56:12.702Z,20.07
2017-04-26T08:57:11.909Z,20.06
2017-04-26T08:58:12.649Z,20.06
2017-04-26T08:59:11.708Z,20.06
2017-04-26T09:00:11.752Z,20.07
2017-04-26T09:01:11.899Z,20.07
2017-04-26T09:02:12.591Z,20.07
2017-04-26T09:03:11.549Z,20.06
2017-04-26T09:04:12.429Z,20.07
2017-04-26T09:05:10.354Z,20.06
2017-04-26T09:06:13.601Z,20.60
2017-04-26T09:07:11.659Z,20.64
2017-04-26T09:08:12.295Z,20.15
2017-04-26T09:09:13.361Z,20.11
2017-04-26T09:10:13.186Z,20.09
2017-04-26T09:11:12.272Z,20.09
2017-04-26T09:12:13.501Z,20.08
2017-04-26T09:13:12.459Z,20.07
2017-04-26T09:14:14.139Z,20.07
2017-04-26T09:15:13.640Z,20.07
2017-04-26T09:16:12.476Z,20.07
2017-04-26T09:17:11.050Z,20.07
2017-04-26T09:18:12.630Z,20.07
2017-04-26T09:19:15.096Z,20.06
2017-04-26T09:20:12.820Z,20.07
2017-04-26T09:21:10.796Z,20.06
2017-04-26T09:22:12.378Z,20.07
2017-04-26T09:23:13.456Z,20.08
2017-04-26T09:24:12.477Z,20.07
2017-04-26T09:25:12.642Z,20.07
2017-04-26T09:26:09.856Z,20.06
2017-04-26T09:27:12.807Z,20.07
2017-04-26T09:28:12.431Z,20.06
2017-04-26T09:29:13.180Z,20.07
2017-04-26T09:30:12.919Z,20.08
2017-04-26T09:31:11.998Z,20.07
2017-04-26T09:32:12.841Z,20.06
2017-04-26T09:33:12.511Z,20.10
2017-04-26T09:34:12.958Z,20.12
2017-04-26T09:35:12.510Z,20.11
2017-04-26T09:36:13.085Z,20.07
2017-04-26T09:37:12.278Z,20.06
2017-04-26T09:38:12.824Z,20.10
2017-04-26T09:39:10.825Z,20.05
2017-04-26T09:40:12.005Z,20.06
2017-04-26T09:41:13.823Z,20.06
2017-04-26T09:42:12.062Z,20.05
2017-04-26T09:43:12.768Z,20.12
2017-04-26T09:44:10.575Z,20.05
2017-04-26T09:45:11.708Z,20.06
2017-04-26T09:46:10.289Z,20.06
2017-04-26T09:47:11.712Z,20.07
2017-04-26T09:48:11.857Z,20.06
2017-04-26T09:49:12.912Z,20.06
2017-04-26T09:50:11.955Z,20.06
2017-04-26T09:51:12.653Z,20.06
2017-04-26T09:52:11.539Z,20.06
2017-04-26T09:53:12.649Z,20.05
2017-04-26T09:54:12.136Z,20.11
2017-04-26T09:55:13.237Z,20.06
2017-04-26T09:56:13.067Z,20.05
2017-04-26T09:57:12.253Z,20.06
2017-04-26T09:58:12.081Z,20.06
2017-04-26T09:59:12.254Z,20.05
2017-04-26T10:00:12.996Z,20.06
2017-04-26T10:01:12.599Z,20.05
2017-04-26T10:02:11.685Z,20.05
2017-04-26T10:03:12.582Z,20.04
2017-04-26T10:04:13.993Z,20.04
2017-04-26T10:05:12.604Z,20.08
2017-04-26T10:06:13.376Z,20.08
2017-04-26T10:07:14.102Z,20.04
2017-04-26T10:08:13.311Z,20.05
2017-04-26T10:09:13.203Z,20.04
2017-04-26T10:10:13.047Z,20.04
2017-04-26T10:11:12.115Z,20.05
2017-04-26T10:12:12.276Z,20.04
2017-04-26T10:13:11.111Z,20.04
2017-04-26T10:15:02.319Z,20.05
2017-04-26T10:15:12.680Z,20.09
2017-04-26T10:16:12.500Z,20.08
2017-04-26T10:17:13.825Z,20.04
2017-04-26T10:18:12.581Z,20.06
2017-04-26T10:19:12.354Z,20.05
2017-04-26T10:20:12.465Z,20.05
2017-04-26T10:21:13.209Z,20.05
2017-04-26T10:22:14.080Z,20.05
2017-04-26T10:23:12.020Z,20.06
2017-04-26T10:24:12.250Z,20.05
2017-04-26T10:25:13.216Z,20.05
2017-04-26T10:26:12.391Z,20.04
2017-04-26T10:27:12.665Z,20.04
2017-04-26T10:28:53.588Z,20.10
2017-04-26T10:29:11.529Z,20.05
2017-04-26T10:30:12.805Z,20.05
2017-04-26T10:31:11.925Z,20.04
2017-04-26T10:32:12.253Z,20.04
2017-04-26T10:33:14.063Z,20.04
2017-04-26T10:34:12.228Z,20.05
2017-04-26T10:35:12.242Z,20.04
2017-04-26T10:36:11.241Z,20.03
2017-04-26T10:37:12.291Z,20.05
2017-04-26T10:38:12.407Z,20.05
2017-04-26T10:39:11.560Z,20.04
2017-04-26T10:40:12.650Z,20.06
2017-04-26T10:41:11.633Z,20.04
2017-04-26T10:42:11.762Z,20.04
2017-04-26T10:43:11.905Z,20.04
2017-04-26T10:44:12.079Z,20.05
2017-04-26T10:45:12.138Z,20.04
2017-04-26T10:46:12.363Z,20.03
2017-04-26T10:47:09.381Z,20.03
2017-04-26T10:48:10.811Z,20.03
2017-04-26T10:49:18.168Z,20.56
2017-04-26T10:50:10.912Z,20.64
2017-04-26T10:51:12.006Z,20.13
2017-04-26T10:52:12.906Z,20.61
2017-04-26T10:53:14.188Z,20.29
2017-04-26T10:54:13.046Z,20.14
2017-04-26T10:55:16.690Z,20.10
2017-04-26T10:56:12.246Z,20.11
2017-04-26T10:57:10.995Z,20.06
2017-04-26T10:58:13.175Z,20.14
2017-04-26T10:59:12.981Z,20.07
2017-04-26T11:00:11.909Z,20.08
2017-04-26T11:01:12.638Z,20.07
2017-04-26T11:02:12.113Z,20.11
2017-04-26T11:03:12.680Z,20.10
2017-04-26T11:04:11.692Z,20.06
2017-04-26T11:05:12.435Z,20.08
2017-04-26T11:06:13.408Z,20.05
2017-04-26T11:07:12.718Z,20.05
2017-04-26T11:08:11.769Z,20.05
2017-04-26T11:09:12.690Z,20.05
2017-04-26T11:10:11.575Z,20.05
2017-04-26T11:11:11.691Z,20.05
2017-04-26T11:12:11.826Z,20.06
2017-04-26T11:13:12.403Z,20.09
2017-04-26T11:14:13.248Z,20.06
2017-04-26T11:15:12.516Z,20.04
2017-04-26T11:16:12.643Z,20.05
2017-04-26T11:17:11.861Z,20.05
2017-04-26T11:18:12.818Z,20.05
2017-04-26T11:19:12.401Z,20.11
2017-04-26T11:20:12.533Z,20.05
2017-04-26T11:21:13.066Z,20.09
2017-04-26T11:22:12.202Z,20.05
2017-04-26T11:23:12.235Z,20.05
2017-04-26T11:24:12.780Z,20.10
2017-04-26T11:25:12.253Z,20.05
2017-04-26T11:26:10.853Z,20.05
2017-04-26T11:27:12.505Z,20.06
2017-04-26T11:28:13.142Z,20.13
2017-04-26T11:29:12.995Z,20.05
2017-04-26T11:30:11.872Z,20.06
2017-04-26T11:31:12.707Z,20.06
2017-04-26T11:32:11.828Z,20.06
2017-04-26T11:33:12.460Z,20.12
2017-04-26T11:34:13.195Z,20.06
2017-04-26T11:35:12.687Z,20.11
2017-04-26T11:36:13.736Z,20.07
2017-04-26T11:37:11.786Z,20.06
2017-04-26T11:38:12.792Z,20.07
2017-04-26T11:39:11.995Z,20.07
2017-04-26T11:40:12.236Z,20.06
2017-04-26T11:41:12.238Z,20.07
2017-04-26T11:42:12.577Z,20.07
2017-04-26T11:43:12.209Z,20.06
2017-04-26T11:44:12.926Z,20.07
2017-04-26T11:45:12.525Z,20.12
2017-04-26T11:46:12.734Z,20.08
2017-04-26T11:47:12.377Z,20.10
2017-04-26T11:48:11.128Z,20.07
2017-04-26T11:49:13.130Z,20.08
2017-04-26T11:50:12.788Z,20.07
2017-04-26T11:51:13.464Z,20.07
2017-04-26T11:52:13.404Z,20.08
2017-04-26T11:53:12.416Z,20.07
2017-04-26T11:54:12.684Z,20.08
2017-04-26T11:55:12.382Z,20.08
2017-04-26T11:56:12.430Z,20.07
2017-04-26T11:57:12.460Z,20.07
2017-04-26T11:58:12.836Z,20.07
2017-04-26T11:59:11.834Z,20.07
2017-04-26T12:00:12.906Z,20.10
2017-04-26T12:01:11.848Z,20.07
2017-04-26T12:02:12.866Z,20.07
2017-04-26T12:03:11.993Z,20.06
2017-04-26T12:04:13.702Z,20.06
2017-04-26T12:05:15.220Z,20.07
2017-04-26T12:06:13.604Z,20.05
2017-04-26T12:07:12.581Z,20.07
2017-04-26T12:08:13.652Z,20.06
2017-04-26T12:09:14.757Z,20.04
2017-04-26T12:10:12.795Z,20.06
2017-04-26T12:11:12.480Z,20.04
2017-04-26T12:12:12.876Z,20.05
2017-04-26T12:13:13.508Z,20.05
2017-04-26T12:14:11.623Z,20.05
2017-04-26T12:15:10.605Z,20.03
2017-04-26T12:16:10.449Z,20.57
2017-04-26T12:17:10.316Z,20.62
2017-04-26T12:18:13.825Z,20.64
2017-04-26T12:19:13.731Z,20.30
2017-04-26T12:20:14.110Z,20.13
2017-04-26T12:21:13.104Z,20.09
2017-04-26T12:22:14.180Z,20.09
2017-04-26T12:23:10.827Z,20.05
2017-04-26T12:24:12.627Z,20.10
2017-04-26T12:25:15.531Z,20.05
2017-04-26T12:26:14.627Z,20.04
2017-04-26T12:27:13.204Z,20.04
2017-04-26T12:28:14.894Z,20.03
2017-04-26T12:29:13.327Z,20.05
2017-04-26T12:30:14.162Z,20.04
2017-04-26T12:31:12.233Z,20.04
2017-04-26T12:32:12.402Z,20.03
2017-04-26T12:33:13.987Z,20.04
2017-04-26T12:34:12.684Z,20.03
2017-04-26T12:35:14.291Z,20.02
2017-04-26T12:36:13.800Z,20.02
2017-04-26T12:37:12.775Z,20.05
2017-04-26T12:38:12.278Z,20.08
2017-04-26T12:39:12.341Z,20.03
2017-04-26T12:40:14.812Z,20.03
2017-04-26T12:41:11.857Z,20.03
2017-04-26T12:42:14.235Z,20.02
2017-04-26T12:43:10.581Z,20.02
2017-04-26T12:44:13.711Z,20.03
2017-04-26T12:45:13.170Z,20.03
2017-04-26T12:46:12.260Z,20.02
2017-04-26T12:47:12.876Z,20.10
2017-04-26T12:48:12.531Z,20.07
2017-04-26T12:49:12.599Z,20.03
2017-04-26T12:50:12.548Z,20.02
2017-04-26T12:51:13.403Z,20.02
2017-04-26T12:52:12.615Z,20.02
2017-04-26T12:53:13.763Z,20.02
2017-04-26T12:54:12.429Z,20.02
2017-04-26T12:55:13.375Z,20.02
2017-04-26T12:56:13.264Z,20.03